Souderton, PA (18964)

3:31 PM EST on February 25, 2017 (GMT -0500)
Detweiler Homestead | | Change Station
Active Advisory: Severe Thunderstorm Watch

Elev 449 ft 40.31 °N, 75.34 °W | Updated 13 seconds ago

Partly Cloudy
Partly Cloudy
69.6 °F
Feels Like 69.6 °F
N
13.0
Wind Variable Wind from ESE

Today
High -- | Low -- °F
--% Chance of Precip.
Yesterday
High -- | Low -- °F
Precip. -- in
Pressure 29.43 in
Visibility 10.0 miles
Clouds Mostly Cloudy 3600 ft
Dew Point 56 °F
Humidity 63%
Rainfall 0.00 in
Snow Depth Not available.
6:40 AM 5:48 PM
Waning Crescent, 1% visible
METAR KUKT 252015Z AUTO 17011G23KT 10SM BKN036 22/14 A2943 RMK AO1
Pressure 29.43 in
Visibility 10.0 miles
Clouds Mostly Cloudy 3600 ft
Dew Point 56 °F
Humidity 63%
Rainfall 0.00 in
Snow Depth Not available.
6:40 AM 5:48 PM
Waning Crescent, 1% visible
METAR KUKT 252015Z AUTO 17011G23KT 10SM BKN036 22/14 A2943 RMK AO1

Get Your Daily Forecast Email!

Thanks for signing up!

Be on the lookout for a verification email in your inbox.

You'll start receiving the daily forecast at 8 AM.

×

10-Day Weather Forecast

Almanac

Astronomy

Feb. 25, 2017 Rise Set
Actual Time
Civil Twilight
Nautical Twilight
Astronomical Twilight
Moon
Length of Visible Light
Length of Day
Tomorrow will be .
, % of the Moon is Illuminated

Today's Extremes

State Highs State Lows

Community

WunderPhotos

Upload Photos

1,962,540 photos uploaded!

WunderBlog® & News

Nearby

Air Quality

  Air Quality AQ Index Pollutant
Not available.

Snow Depth

Station Depth Elevation

Earthquake Activity

City Distance Mag. Time & Date
Minimum magnitude displayed is 2.5.

Coastal Water Temperatures

Place Temperature

Stations

Nearby Weather Stations

Station Location Temp. Windchill Dew Point Humidity Wind Precip. Elev Updated Type
                   

Watches & Warnings

Severe Thunderstorm Watch
Issued: 3:24 PM EST Feb. 25, 2017 – National Weather Service

Severe Thunderstorm Watch 39 remains in effect until 800 PM EST

PA
. Pennsylvania counties included are

Adams Berks Chester
Cumberland Dauphin Delaware
Lancaster Lebanon Montgomery
Philadelphia York